sensor_id;sensor_type;location;lat;lon;timestamp;pressure;altitude;pressure_sealevel;temperature;humidity
58919;BME280;44704;50.122;19.932;2022-08-04T00:03:52;98633.12;;;19.20;71.94
58919;BME280;44704;50.122;19.932;2022-08-04T00:06:54;98634.27;;;19.17;72.02
58919;BME280;44704;50.122;19.932;2022-08-04T00:10:19;98633.08;;;19.15;72.05
58919;BME280;44704;50.122;19.932;2022-08-04T00:12:16;98632.64;;;19.15;72.50
58919;BME280;44704;50.122;19.932;2022-08-04T00:14:49;98630.87;;;19.12;72.57
58919;BME280;44704;50.122;19.932;2022-08-04T00:17:24;98634.59;;;19.10;72.83
58919;BME280;44704;50.122;19.932;2022-08-04T00:19:55;98627.63;;;19.06;72.83
58919;BME280;44704;50.122;19.932;2022-08-04T00:22:30;98629.02;;;19.04;73.02
58919;BME280;44704;50.122;19.932;2022-08-04T00:25:01;98629.14;;;19.04;72.98
58919;BME280;44704;50.122;19.932;2022-08-04T00:27:29;98631.11;;;19.05;73.19
58919;BME280;44704;50.122;19.932;2022-08-04T00:29:57;98628.64;;;19.04;73.22
58919;BME280;44704;50.122;19.932;2022-08-04T00:32:25;98628.23;;;19.03;73.19
58919;BME280;44704;50.122;19.932;2022-08-04T00:34:53;98627.88;;;19.04;73.45
58919;BME280;44704;50.122;19.932;2022-08-04T00:37:21;98627.66;;;19.04;73.42
58919;BME280;44704;50.122;19.932;2022-08-04T00:39:48;98628.55;;;19.03;73.44
58919;BME280;44704;50.122;19.932;2022-08-04T00:50:00;98628.05;;;18.97;73.58
58919;BME280;44704;50.122;19.932;2022-08-04T00:55:35;98634.16;;;18.91;73.72
58919;BME280;44704;50.122;19.932;2022-08-04T00:58:28;98635.64;;;18.88;73.90
58919;BME280;44704;50.122;19.932;2022-08-04T01:01:03;98636.53;;;18.87;73.99
58919;BME280;44704;50.122;19.932;2022-08-04T01:18:07;98632.52;;;18.67;74.34
58919;BME280;44704;50.122;19.932;2022-08-04T01:34:18;98638.87;;;18.35;74.73
58919;BME280;44704;50.122;19.932;2022-08-04T01:40:04;98638.05;;;18.17;74.17
58919;BME280;44704;50.122;19.932;2022-08-04T01:42:34;98640.98;;;18.04;74.41
58919;BME280;44704;50.122;19.932;2022-08-04T01:45:04;98635.99;;;17.95;74.93
58919;BME280;44704;50.122;19.932;2022-08-04T01:47:37;98637.48;;;17.90;75.27
58919;BME280;44704;50.122;19.932;2022-08-04T01:50:12;98635.30;;;17.83;75.35
58919;BME280;44704;50.122;19.932;2022-08-04T01:52:41;98634.20;;;17.82;75.65
58919;BME280;44704;50.122;19.932;2022-08-04T01:55:11;98634.98;;;17.83;75.90
58919;BME280;44704;50.122;19.932;2022-08-04T01:57:43;98640.08;;;17.84;76.13
58919;BME280;44704;50.122;19.932;2022-08-04T02:00:25;98636.23;;;17.86;76.38
58919;BME280;44704;50.122;19.932;2022-08-04T02:02:54;98633.63;;;17.89;76.28
58919;BME280;44704;50.122;19.932;2022-08-04T02:05:23;98633.23;;;17.90;76.39
58919;BME280;44704;50.122;19.932;2022-08-04T02:16:37;98627.14;;;17.70;76.10
58919;BME280;44704;50.122;19.932;2022-08-04T02:21:30;98623.02;;;17.69;76.65
58919;BME280;44704;50.122;19.932;2022-08-04T02:24:08;98621.96;;;17.70;76.87
58919;BME280;44704;50.122;19.932;2022-08-04T02:26:41;98622.41;;;17.70;76.81
58919;BME280;44704;50.122;19.932;2022-08-04T02:31:56;98617.59;;;17.65;76.64
58919;BME280;44704;50.122;19.932;2022-08-04T02:34:54;98625.41;;;17.66;76.57
58919;BME280;44704;50.122;19.932;2022-08-04T02:37:25;98625.02;;;17.66;76.37
58919;BME280;44704;50.122;19.932;2022-08-04T02:39:52;98620.64;;;17.63;76.36
58919;BME280;44704;50.122;19.932;2022-08-04T02:42:20;98618.90;;;17.58;76.21
58919;BME280;44704;50.122;19.932;2022-08-04T02:44:50;98621.39;;;17.53;76.31
58919;BME280;44704;50.122;19.932;2022-08-04T02:47:20;98618.05;;;17.49;76.62
58919;BME280;44704;50.122;19.932;2022-08-04T02:49:50;98614.42;;;17.45;76.70
58919;BME280;44704;50.122;19.932;2022-08-04T02:52:18;98614.33;;;17.44;76.93
58919;BME280;44704;50.122;19.932;2022-08-04T02:54:47;98614.06;;;17.44;77.09
58919;BME280;44704;50.122;19.932;2022-08-04T02:57:16;98614.90;;;17.42;77.02
58919;BME280;44704;50.122;19.932;2022-08-04T03:00:03;98611.39;;;17.39;77.06
58919;BME280;44704;50.122;19.932;2022-08-04T03:03:05;98613.23;;;17.38;77.29
58919;BME280;44704;50.122;19.932;2022-08-04T03:17:28;98609.98;;;17.35;77.84
58919;BME280;44704;50.122;19.932;2022-08-04T03:39:19;98624.23;;;17.21;78.30
58919;BME280;44704;50.122;19.932;2022-08-04T03:58:36;98628.88;;;17.26;79.14
58919;BME280;44704;50.122;19.932;2022-08-04T04:01:38;98626.02;;;17.25;79.37
58919;BME280;44704;50.122;19.932;2022-08-04T04:18:14;98627.55;;;17.45;79.66
58919;BME280;44704;50.122;19.932;2022-08-04T04:31:49;98632.33;;;17.30;79.99
58919;BME280;44704;50.122;19.932;2022-08-04T04:45:20;98641.05;;;17.51;80.66
58919;BME280;44704;50.122;19.932;2022-08-04T04:51:05;98645.23;;;17.67;80.58
58919;BME280;44704;50.122;19.932;2022-08-04T04:53:56;98646.96;;;17.78;80.49
58919;BME280;44704;50.122;19.932;2022-08-04T04:56:55;98645.20;;;17.89;80.49
58919;BME280;44704;50.122;19.932;2022-08-04T04:59:30;98643.35;;;18.00;80.29
58919;BME280;44704;50.122;19.932;2022-08-04T05:02:42;98645.40;;;18.08;80.37
58919;BME280;44704;50.122;19.932;2022-08-04T05:05:32;98646.48;;;18.19;80.13
58919;BME280;44704;50.122;19.932;2022-08-04T05:13:51;98647.70;;;18.45;79.57
58919;BME280;44704;50.122;19.932;2022-08-04T05:22:06;98653.27;;;18.64;79.04
58919;BME280;44704;50.122;19.932;2022-08-04T05:24:39;98656.58;;;18.71;78.77
58919;BME280;44704;50.122;19.932;2022-08-04T05:27:13;98658.91;;;18.77;78.52
58919;BME280;44704;50.122;19.932;2022-08-04T05:30:03;98659.70;;;18.84;78.38
58919;BME280;44704;50.122;19.932;2022-08-04T05:32:47;98658.36;;;18.90;78.29
58919;BME280;44704;50.122;19.932;2022-08-04T05:35:28;98658.00;;;18.96;78.07
58919;BME280;44704;50.122;19.932;2022-08-04T05:37:57;98660.08;;;19.02;78.08
58919;BME280;44704;50.122;19.932;2022-08-04T05:40:26;98661.31;;;19.09;77.89
58919;BME280;44704;50.122;19.932;2022-08-04T05:42:54;98662.91;;;19.17;77.94
58919;BME280;44704;50.122;19.932;2022-08-04T05:45:23;98663.82;;;19.24;77.67
58919;BME280;44704;50.122;19.932;2022-08-04T05:47:51;98669.73;;;19.31;77.51
58919;BME280;44704;50.122;19.932;2022-08-04T05:50:19;98663.36;;;19.38;77.45
58919;BME280;44704;50.122;19.932;2022-08-04T05:52:48;98670.32;;;19.45;77.13
58919;BME280;44704;50.122;19.932;2022-08-04T05:55:16;98669.62;;;19.51;76.94
58919;BME280;44704;50.122;19.932;2022-08-04T05:57:44;98672.02;;;19.58;76.51
58919;BME280;44704;50.122;19.932;2022-08-04T06:00:15;98672.36;;;19.65;76.54
58919;BME280;44704;50.122;19.932;2022-08-04T06:02:47;98672.77;;;19.70;76.12
58919;BME280;44704;50.122;19.932;2022-08-04T06:05:16;98670.98;;;19.77;75.79
58919;BME280;44704;50.122;19.932;2022-08-04T06:07:45;98665.83;;;19.85;75.55
58919;BME280;44704;50.122;19.932;2022-08-04T06:10:14;98668.34;;;19.93;75.55
58919;BME280;44704;50.122;19.932;2022-08-04T06:12:51;98675.13;;;20.01;75.17
58919;BME280;44704;50.122;19.932;2022-08-04T06:15:20;98677.38;;;20.09;74.65
58919;BME280;44704;50.122;19.932;2022-08-04T06:17:50;98679.45;;;20.17;74.47
58919;BME280;44704;50.122;19.932;2022-08-04T06:20:19;98683.64;;;20.28;74.11
58919;BME280;44704;50.122;19.932;2022-08-04T06:22:54;98683.33;;;20.39;74.05
58919;BME280;44704;50.122;19.932;2022-08-04T06:25:27;98683.59;;;20.48;73.31
58919;BME280;44704;50.122;19.932;2022-08-04T06:27:56;98684.54;;;20.57;72.95
58919;BME280;44704;50.122;19.932;2022-08-04T06:30:26;98684.19;;;20.65;72.59
58919;BME280;44704;50.122;19.932;2022-08-04T06:32:54;98682.40;;;20.72;72.20
58919;BME280;44704;50.122;19.932;2022-08-04T06:35:27;98682.19;;;20.81;72.06
58919;BME280;44704;50.122;19.932;2022-08-04T06:37:56;98682.24;;;20.89;72.22
58919;BME280;44704;50.122;19.932;2022-08-04T06:40:24;98679.06;;;20.96;72.16
58919;BME280;44704;50.122;19.932;2022-08-04T06:42:53;98682.03;;;21.05;71.86
58919;BME280;44704;50.122;19.932;2022-08-04T06:45:21;98681.02;;;21.14;71.17
58919;BME280;44704;50.122;19.932;2022-08-04T06:47:49;98680.90;;;21.21;70.66
58919;BME280;44704;50.122;19.932;2022-08-04T06:50:18;98680.11;;;21.30;70.50
58919;BME280;44704;50.122;19.932;2022-08-04T06:52:46;98677.61;;;21.37;69.91
58919;BME280;44704;50.122;19.932;2022-08-04T06:55:13;98675.89;;;21.46;69.72
58919;BME280;44704;50.122;19.932;2022-08-04T06:57:40;98677.17;;;21.54;69.69
58919;BME280;44704;50.122;19.932;2022-08-04T07:00:13;98677.27;;;21.62;69.64
58919;BME280;44704;50.122;19.932;2022-08-04T07:02:48;98672.49;;;21.71;69.95
58919;BME280;44704;50.122;19.932;2022-08-04T07:05:17;98671.63;;;21.80;69.50
58919;BME280;44704;50.122;19.932;2022-08-04T07:07:45;98672.09;;;21.89;68.73
58919;BME280;44704;50.122;19.932;2022-08-04T07:10:13;98670.42;;;21.97;67.65
58919;BME280;44704;50.122;19.932;2022-08-04T07:12:41;98668.95;;;22.06;67.11
58919;BME280;44704;50.122;19.932;2022-08-04T07:15:10;98666.01;;;22.15;65.78
58919;BME280;44704;50.122;19.932;2022-08-04T07:17:38;98667.98;;;22.24;65.34
58919;BME280;44704;50.122;19.932;2022-08-04T07:20:06;98666.70;;;22.34;65.24
58919;BME280;44704;50.122;19.932;2022-08-04T07:22:34;98674.36;;;22.44;65.29
58919;BME280;44704;50.122;19.932;2022-08-04T07:25:07;98671.66;;;22.54;65.05
58919;BME280;44704;50.122;19.932;2022-08-04T07:27:34;98671.31;;;22.63;64.71
58919;BME280;44704;50.122;19.932;2022-08-04T07:30:04;98671.65;;;22.73;64.29
58919;BME280;44704;50.122;19.932;2022-08-04T07:32:31;98673.50;;;22.83;63.20
58919;BME280;44704;50.122;19.932;2022-08-04T07:34:58;98671.08;;;22.91;62.70
58919;BME280;44704;50.122;19.932;2022-08-04T07:37:25;98671.56;;;23.02;62.20
58919;BME280;44704;50.122;19.932;2022-08-04T07:39:53;98669.95;;;23.12;61.84
58919;BME280;44704;50.122;19.932;2022-08-04T07:42:20;98670.05;;;23.22;61.95
58919;BME280;44704;50.122;19.932;2022-08-04T07:44:47;98667.67;;;23.33;61.90
58919;BME280;44704;50.122;19.932;2022-08-04T07:47:14;98670.25;;;23.43;61.72
58919;BME280;44704;50.122;19.932;2022-08-04T07:49:41;98670.35;;;23.54;59.84
58919;BME280;44704;50.122;19.932;2022-08-04T07:52:09;98667.39;;;23.65;59.07
58919;BME280;44704;50.122;19.932;2022-08-04T07:54:38;98670.14;;;23.77;57.96
58919;BME280;44704;50.122;19.932;2022-08-04T07:57:05;98669.05;;;23.89;57.41
58919;BME280;44704;50.122;19.932;2022-08-04T07:59:32;98667.08;;;24.00;56.57
58919;BME280;44704;50.122;19.932;2022-08-04T08:02:00;98665.58;;;24.13;56.65
58919;BME280;44704;50.122;19.932;2022-08-04T08:04:28;98665.16;;;24.27;56.70
58919;BME280;44704;50.122;19.932;2022-08-04T08:06:58;98664.73;;;24.41;55.30
58919;BME280;44704;50.122;19.932;2022-08-04T08:09:25;98665.20;;;24.54;54.32
58919;BME280;44704;50.122;19.932;2022-08-04T08:11:53;98666.38;;;24.68;54.38
58919;BME280;44704;50.122;19.932;2022-08-04T08:14:21;98669.78;;;24.84;53.50
58919;BME280;44704;50.122;19.932;2022-08-04T08:16:48;98670.31;;;24.96;53.31
58919;BME280;44704;50.122;19.932;2022-08-04T08:19:15;98666.67;;;25.09;52.58
58919;BME280;44704;50.122;19.932;2022-08-04T08:21:46;98662.69;;;25.20;52.78
58919;BME280;44704;50.122;19.932;2022-08-04T08:24:15;98661.09;;;25.34;52.51
58919;BME280;44704;50.122;19.932;2022-08-04T08:26:42;98659.09;;;25.46;52.05
58919;BME280;44704;50.122;19.932;2022-08-04T08:29:10;98661.55;;;25.56;51.20
58919;BME280;44704;50.122;19.932;2022-08-04T08:31:37;98662.92;;;25.65;50.82
58919;BME280;44704;50.122;19.932;2022-08-04T08:34:05;98659.00;;;25.75;50.16
58919;BME280;44704;50.122;19.932;2022-08-04T08:36:44;98657.84;;;25.85;49.87
58919;BME280;44704;50.122;19.932;2022-08-04T08:39:25;98662.89;;;25.94;49.57
58919;BME280;44704;50.122;19.932;2022-08-04T08:53:22;98659.03;;;26.39;47.40
58919;BME280;44704;50.122;19.932;2022-08-04T09:01:25;98664.72;;;26.67;46.79
58919;BME280;44704;50.122;19.932;2022-08-04T09:12:29;98665.73;;;27.16;45.83
58919;BME280;44704;50.122;19.932;2022-08-04T09:15:44;98664.57;;;27.26;45.42
58919;BME280;44704;50.122;19.932;2022-08-04T09:18:33;98658.95;;;27.40;44.64
58919;BME280;44704;50.122;19.932;2022-08-04T09:24:13;98655.24;;;27.69;43.84
58919;BME280;44704;50.122;19.932;2022-08-04T09:32:31;98656.83;;;28.06;43.81
58919;BME280;44704;50.122;19.932;2022-08-04T09:35:22;98660.11;;;28.21;43.28
58919;BME280;44704;50.122;19.932;2022-08-04T09:38:25;98663.27;;;28.31;41.95
58919;BME280;44704;50.122;19.932;2022-08-04T09:43:31;98665.56;;;28.42;41.90
58919;BME280;44704;50.122;19.932;2022-08-04T09:46:22;98658.23;;;28.54;42.64
58919;BME280;44704;50.122;19.932;2022-08-04T09:49:04;98652.95;;;28.67;41.45
58919;BME280;44704;50.122;19.932;2022-08-04T09:54:10;98654.87;;;28.85;40.68
58919;BME280;44704;50.122;19.932;2022-08-04T09:56:56;98651.41;;;28.94;40.86
58919;BME280;44704;50.122;19.932;2022-08-04T09:59:35;98653.30;;;29.07;40.65
58919;BME280;44704;50.122;19.932;2022-08-04T10:02:12;98650.33;;;29.16;40.35
58919;BME280;44704;50.122;19.932;2022-08-04T10:04:42;98644.58;;;29.26;40.03
58919;BME280;44704;50.122;19.932;2022-08-04T10:12:46;98642.02;;;29.56;39.64
58919;BME280;44704;50.122;19.932;2022-08-04T10:15:25;98637.13;;;29.63;39.36
58919;BME280;44704;50.122;19.932;2022-08-04T10:18:09;98637.92;;;29.70;39.27
58919;BME280;44704;50.122;19.932;2022-08-04T10:21:13;98637.77;;;29.81;38.78
58919;BME280;44704;50.122;19.932;2022-08-04T10:27:21;98634.27;;;30.02;38.54
58919;BME280;44704;50.122;19.932;2022-08-04T10:29:53;98632.65;;;30.09;38.48
58919;BME280;44704;50.122;19.932;2022-08-04T10:32:28;98625.92;;;30.15;38.19
58919;BME280;44704;50.122;19.932;2022-08-04T10:40:49;98619.95;;;30.37;38.21
58919;BME280;44704;50.122;19.932;2022-08-04T10:46:11;98623.65;;;30.52;38.54
58919;BME280;44704;50.122;19.932;2022-08-04T10:51:27;98623.29;;;30.72;38.29
58919;BME280;44704;50.122;19.932;2022-08-04T10:53:59;98620.03;;;30.75;38.12
58919;BME280;44704;50.122;19.932;2022-08-04T10:56:33;98622.38;;;30.76;37.96
58919;BME280;44704;50.122;19.932;2022-08-04T10:59:09;98620.27;;;30.79;38.42
58919;BME280;44704;50.122;19.932;2022-08-04T11:01:39;98623.15;;;30.84;38.10
58919;BME280;44704;50.122;19.932;2022-08-04T11:04:20;98623.60;;;30.91;38.62
58919;BME280;44704;50.122;19.932;2022-08-04T11:06:51;98620.39;;;31.01;38.20
58919;BME280;44704;50.122;19.932;2022-08-04T11:09:19;98621.77;;;31.02;37.47
58919;BME280;44704;50.122;19.932;2022-08-04T11:11:51;98623.86;;;31.02;38.12
58919;BME280;44704;50.122;19.932;2022-08-04T11:14:23;98621.59;;;31.11;37.65
58919;BME280;44704;50.122;19.932;2022-08-04T11:17:14;98619.48;;;31.20;37.68
58919;BME280;44704;50.122;19.932;2022-08-04T11:20:24;98619.52;;;31.28;36.94
58919;BME280;44704;50.122;19.932;2022-08-04T11:23:04;98619.57;;;31.38;36.99
58919;BME280;44704;50.122;19.932;2022-08-04T11:31:27;98618.02;;;31.64;36.34
58919;BME280;44704;50.122;19.932;2022-08-04T11:42:25;98623.58;;;31.72;34.10
58919;BME280;44704;50.122;19.932;2022-08-04T11:45:10;98618.88;;;31.74;34.54
58919;BME280;44704;50.122;19.932;2022-08-04T11:47:52;98616.91;;;31.86;34.80
58919;BME280;44704;50.122;19.932;2022-08-04T11:50:31;98612.40;;;31.91;33.93
58919;BME280;44704;50.122;19.932;2022-08-04T11:53:01;98615.54;;;31.92;34.11
58919;BME280;44704;50.122;19.932;2022-08-04T11:55:30;98611.52;;;32.00;34.10
58919;BME280;44704;50.122;19.932;2022-08-04T11:57:58;98615.73;;;32.05;33.42
58919;BME280;44704;50.122;19.932;2022-08-04T12:00:28;98613.65;;;32.07;32.79
58919;BME280;44704;50.122;19.932;2022-08-04T12:05:54;98612.69;;;32.14;34.00
58919;BME280;44704;50.122;19.932;2022-08-04T12:08:35;98608.19;;;32.24;34.35
58919;BME280;44704;50.122;19.932;2022-08-04T12:11:25;98604.19;;;32.26;33.92
58919;BME280;44704;50.122;19.932;2022-08-04T12:14:13;98600.75;;;32.29;33.97
58919;BME280;44704;50.122;19.932;2022-08-04T12:16:58;98591.15;;;32.36;33.97
58919;BME280;44704;50.122;19.932;2022-08-04T12:19:49;98588.68;;;32.38;33.51
58919;BME280;44704;50.122;19.932;2022-08-04T12:22:21;98591.86;;;32.41;32.70
58919;BME280;44704;50.122;19.932;2022-08-04T12:25:02;98587.92;;;32.35;32.43
58919;BME280;44704;50.122;19.932;2022-08-04T12:27:43;98583.75;;;32.27;32.65
58919;BME280;44704;50.122;19.932;2022-08-04T12:30:13;98587.92;;;32.35;33.17
58919;BME280;44704;50.122;19.932;2022-08-04T12:32:58;98591.92;;;32.41;32.84
58919;BME280;44704;50.122;19.932;2022-08-04T12:38:05;98584.50;;;32.57;32.69
58919;BME280;44704;50.122;19.932;2022-08-04T12:43:10;98579.45;;;32.77;32.54
58919;BME280;44704;50.122;19.932;2022-08-04T12:45:43;98576.30;;;32.88;33.24
58919;BME280;44704;50.122;19.932;2022-08-04T12:48:12;98575.39;;;32.96;32.10
58919;BME280;44704;50.122;19.932;2022-08-04T12:50:39;98571.92;;;32.95;32.28
58919;BME280;44704;50.122;19.932;2022-08-04T12:53:12;98574.88;;;32.91;32.56
58919;BME280;44704;50.122;19.932;2022-08-04T12:55:46;98571.18;;;32.93;32.41
58919;BME280;44704;50.122;19.932;2022-08-04T12:58:17;98569.45;;;32.99;32.29
58919;BME280;44704;50.122;19.932;2022-08-04T13:00:53;98569.80;;;33.04;31.82
58919;BME280;44704;50.122;19.932;2022-08-04T13:03:26;98569.52;;;33.09;32.19
58919;BME280;44704;50.122;19.932;2022-08-04T13:05:55;98567.61;;;33.12;31.46
58919;BME280;44704;50.122;19.932;2022-08-04T13:08:22;98562.40;;;33.16;31.11
58919;BME280;44704;50.122;19.932;2022-08-04T13:10:52;98560.00;;;33.17;30.97
58919;BME280;44704;50.122;19.932;2022-08-04T13:13:28;98557.65;;;33.16;31.06
58919;BME280;44704;50.122;19.932;2022-08-04T13:16:02;98557.53;;;33.24;31.08
58919;BME280;44704;50.122;19.932;2022-08-04T13:18:32;98555.59;;;33.39;31.04
58919;BME280;44704;50.122;19.932;2022-08-04T13:21:12;98550.70;;;33.46;30.80
58919;BME280;44704;50.122;19.932;2022-08-04T13:23:41;98548.84;;;33.46;30.74
58919;BME280;44704;50.122;19.932;2022-08-04T13:26:13;98549.34;;;33.49;30.39
58919;BME280;44704;50.122;19.932;2022-08-04T13:28:43;98550.12;;;33.42;30.37
58919;BME280;44704;50.122;19.932;2022-08-04T13:31:22;98551.27;;;33.46;30.35
58919;BME280;44704;50.122;19.932;2022-08-04T13:33:53;98550.55;;;33.49;30.04
58919;BME280;44704;50.122;19.932;2022-08-04T13:36:29;98547.00;;;33.48;29.89
58919;BME280;44704;50.122;19.932;2022-08-04T13:39:07;98540.08;;;33.51;29.90
58919;BME280;44704;50.122;19.932;2022-08-04T13:41:44;98536.72;;;33.61;30.05
58919;BME280;44704;50.122;19.932;2022-08-04T13:44:13;98540.02;;;33.57;30.08
58919;BME280;44704;50.122;19.932;2022-08-04T13:46:46;98537.73;;;33.53;29.69
58919;BME280;44704;50.122;19.932;2022-08-04T13:49:17;98539.42;;;33.50;30.07
58919;BME280;44704;50.122;19.932;2022-08-04T13:51:48;98538.69;;;33.46;30.46
58919;BME280;44704;50.122;19.932;2022-08-04T13:54:15;98536.09;;;33.46;30.25
58919;BME280;44704;50.122;19.932;2022-08-04T13:56:46;98535.38;;;33.46;30.35
58919;BME280;44704;50.122;19.932;2022-08-04T13:59:16;98531.98;;;33.50;30.78
58919;BME280;44704;50.122;19.932;2022-08-04T14:01:58;98530.08;;;33.54;30.23
58919;BME280;44704;50.122;19.932;2022-08-04T14:04:27;98531.46;;;33.57;29.59
58919;BME280;44704;50.122;19.932;2022-08-04T14:07:00;98527.69;;;33.64;30.00
58919;BME280;44704;50.122;19.932;2022-08-04T14:09:31;98526.61;;;33.69;29.17
58919;BME280;44704;50.122;19.932;2022-08-04T14:12:19;98520.89;;;33.73;29.34
58919;BME280;44704;50.122;19.932;2022-08-04T14:14:48;98526.96;;;33.79;29.44
58919;BME280;44704;50.122;19.932;2022-08-04T14:17:17;98520.10;;;33.85;29.69
58919;BME280;44704;50.122;19.932;2022-08-04T14:19:52;98518.27;;;33.89;29.47
58919;BME280;44704;50.122;19.932;2022-08-04T14:25:15;98511.80;;;33.87;28.96
58919;BME280;44704;50.122;19.932;2022-08-04T14:27:47;98510.81;;;33.76;28.92
58919;BME280;44704;50.122;19.932;2022-08-04T14:33:09;98510.63;;;33.69;28.64
58919;BME280;44704;50.122;19.932;2022-08-04T14:35:37;98507.36;;;33.63;28.74
58919;BME280;44704;50.122;19.932;2022-08-04T14:38:07;98505.30;;;33.50;28.22
58919;BME280;44704;50.122;19.932;2022-08-04T14:40:36;98503.95;;;33.35;28.42
58919;BME280;44704;50.122;19.932;2022-08-04T14:43:05;98496.73;;;33.27;29.12
58919;BME280;44704;50.122;19.932;2022-08-04T14:45:42;98498.16;;;33.20;28.86
58919;BME280;44704;50.122;19.932;2022-08-04T14:48:13;98498.08;;;33.19;29.45
58919;BME280;44704;50.122;19.932;2022-08-04T14:50:45;98498.61;;;33.30;30.05
58919;BME280;44704;50.122;19.932;2022-08-04T14:53:15;98497.82;;;33.40;29.65
58919;BME280;44704;50.122;19.932;2022-08-04T14:55:50;98497.30;;;33.46;29.42
58919;BME280;44704;50.122;19.932;2022-08-04T14:58:21;98497.87;;;33.48;29.41
58919;BME280;44704;50.122;19.932;2022-08-04T15:00:50;98497.85;;;33.45;29.38
58919;BME280;44704;50.122;19.932;2022-08-04T15:03:19;98496.40;;;33.45;28.76
58919;BME280;44704;50.122;19.932;2022-08-04T15:05:48;98493.27;;;33.46;28.92
58919;BME280;44704;50.122;19.932;2022-08-04T15:08:15;98490.60;;;33.47;28.83
58919;BME280;44704;50.122;19.932;2022-08-04T15:10:43;98489.23;;;33.47;28.98
58919;BME280;44704;50.122;19.932;2022-08-04T15:13:10;98491.23;;;33.44;29.17
58919;BME280;44704;50.122;19.932;2022-08-04T15:15:41;98493.40;;;33.39;28.98
58919;BME280;44704;50.122;19.932;2022-08-04T15:18:12;98496.38;;;33.39;29.28
58919;BME280;44704;50.122;19.932;2022-08-04T15:20:39;98492.03;;;33.43;29.27
58919;BME280;44704;50.122;19.932;2022-08-04T15:23:07;98495.01;;;33.39;29.52
58919;BME280;44704;50.122;19.932;2022-08-04T15:25:48;98493.71;;;33.36;29.53
58919;BME280;44704;50.122;19.932;2022-08-04T15:28:24;98491.69;;;33.33;28.85
58919;BME280;44704;50.122;19.932;2022-08-04T15:31:03;98490.35;;;33.23;28.80
58919;BME280;44704;50.122;19.932;2022-08-04T15:33:48;98486.33;;;33.13;28.94
58919;BME280;44704;50.122;19.932;2022-08-04T15:39:42;98486.06;;;33.07;29.32
58919;BME280;44704;50.122;19.932;2022-08-04T15:47:32;98486.66;;;32.99;28.99
58919;BME280;44704;50.122;19.932;2022-08-04T15:50:06;98489.41;;;32.88;29.58
58919;BME280;44704;50.122;19.932;2022-08-04T15:53:00;98486.97;;;32.84;29.31
58919;BME280;44704;50.122;19.932;2022-08-04T15:55:34;98487.30;;;32.86;29.50
58919;BME280;44704;50.122;19.932;2022-08-04T16:21:52;98475.86;;;32.38;30.66
58919;BME280;44704;50.122;19.932;2022-08-04T16:26:50;98473.03;;;32.38;30.74
58919;BME280;44704;50.122;19.932;2022-08-04T16:34:31;98469.75;;;32.54;30.83
58919;BME280;44704;50.122;19.932;2022-08-04T16:37:09;98467.14;;;32.58;30.92
58919;BME280;44704;50.122;19.932;2022-08-04T16:39:38;98473.09;;;32.66;30.69
58919;BME280;44704;50.122;19.932;2022-08-04T16:42:31;98469.70;;;32.79;30.52
58919;BME280;44704;50.122;19.932;2022-08-04T16:45:19;98469.02;;;32.86;30.59
58919;BME280;44704;50.122;19.932;2022-08-04T16:50:21;98464.14;;;32.78;30.29
58919;BME280;44704;50.122;19.932;2022-08-04T16:52:53;98464.14;;;32.78;30.47
58919;BME280;44704;50.122;19.932;2022-08-04T16:55:25;98462.02;;;32.88;30.46
58919;BME280;44704;50.122;19.932;2022-08-04T16:57:57;98461.41;;;32.97;30.28
58919;BME280;44704;50.122;19.932;2022-08-04T17:00:32;98460.94;;;32.99;29.95
58919;BME280;44704;50.122;19.932;2022-08-04T17:03:04;98466.01;;;32.81;30.73
58919;BME280;44704;50.122;19.932;2022-08-04T17:05:32;98468.36;;;32.49;30.65
58919;BME280;44704;50.122;19.932;2022-08-04T17:08:00;98468.05;;;32.20;31.28
58919;BME280;44704;50.122;19.932;2022-08-04T17:10:43;98466.83;;;32.07;31.40
58919;BME280;44704;50.122;19.932;2022-08-04T17:13:26;98467.05;;;32.35;31.37
58919;BME280;44704;50.122;19.932;2022-08-04T17:15:57;98465.45;;;33.00;31.46
58919;BME280;44704;50.122;19.932;2022-08-04T17:18:35;98470.62;;;32.85;31.54
58919;BME280;44704;50.122;19.932;2022-08-04T17:21:10;98467.19;;;32.44;32.33
58919;BME280;44704;50.122;19.932;2022-08-04T17:23:45;98467.39;;;32.83;32.24
58919;BME280;44704;50.122;19.932;2022-08-04T17:26:17;98463.00;;;33.46;31.34
58919;BME280;44704;50.122;19.932;2022-08-04T17:28:47;98459.24;;;33.86;30.75
58919;BME280;44704;50.122;19.932;2022-08-04T17:31:15;98462.02;;;34.33;30.20
58919;BME280;44704;50.122;19.932;2022-08-04T17:33:50;98464.73;;;34.73;30.09
58919;BME280;44704;50.122;19.932;2022-08-04T17:36:22;98458.56;;;35.11;29.51
58919;BME280;44704;50.122;19.932;2022-08-04T17:38:52;98461.05;;;35.40;29.17
58919;BME280;44704;50.122;19.932;2022-08-04T17:41:24;98460.27;;;35.28;28.77
58919;BME280;44704;50.122;19.932;2022-08-04T17:43:56;98461.61;;;34.48;29.58
58919;BME280;44704;50.122;19.932;2022-08-04T17:46:46;98457.09;;;33.69;30.41
58919;BME280;44704;50.122;19.932;2022-08-04T17:54:08;98464.30;;;31.65;33.89
58919;BME280;44704;50.122;19.932;2022-08-04T17:59:09;98461.67;;;30.68;35.20
58919;BME280;44704;50.122;19.932;2022-08-04T18:07:06;98465.89;;;29.96;36.54
58919;BME280;44704;50.122;19.932;2022-08-04T18:09:48;98469.70;;;29.51;37.13
58919;BME280;44704;50.122;19.932;2022-08-04T18:14:54;98470.27;;;28.76;38.12
58919;BME280;44704;50.122;19.932;2022-08-04T18:17:39;98479.84;;;28.46;38.66
58919;BME280;44704;50.122;19.932;2022-08-04T18:20:17;98483.48;;;28.12;39.20
58919;BME280;44704;50.122;19.932;2022-08-04T18:22:46;98482.61;;;27.82;39.58
58919;BME280;44704;50.122;19.932;2022-08-04T18:25:15;98482.11;;;27.55;40.25
58919;BME280;44704;50.122;19.932;2022-08-04T18:27:53;98485.41;;;27.28;40.56